Etusivu
METAR-TAF:

METAR-TAF

Lentoasemat :

Clayton Lake, Maine, Yhdysvallat

Leveyspiiri: 46-37N, Pituuspiiri: 069-32W, korkeus merenpinnasta: 314 m

Tämänhetkinen sää

Tämä raportti tehtiin 27 minuuttia sitten, kello 05.16 UTC
Tuuli 4 kn eri suunnista
Lämpötila -2°C
Kosteus 100%
Ilmanpaine 1010 hPa

METAR: K40B 220516Z AUTO VRB04KT M02/M02 A2983 RMK AO1 SLP123 T10181017 400011067 58030

Aika: 00:43 (05:43 UTC)


TAF: puuttuu

Säähavainnot ja -ennusteet yli 4000 lentoasemalta (METAR- ja TAF-raportit).

Käytössä olevat sääasemat on merkitty karttaan keltaisilla ja punaisilla pisteillä.

Aseta hiiri pisteen päälle nähdäksesi sääaseman nimen.

Klikkaa sitten nähdäksesi säähavainnot ja -ennusteet.

Kartan vaihtaminen: klikkaa mustalla rastilla varustettuja vihreitä pisteitä, niin voit zoomata sisään; viivalla varustettua vihreää pistettä, niin voit zoomata ulos tai vihreitä nuolia, niin pääset viereisille kartoille.


METAR-TAF: